Bunun Fortune — VRNZ5 — position and weather

sailwx.info

Track history (hours):
 
Tides and Currents Weather Stations Pressure Air Temp Water Temp Dewpoint Dewpoint Depression Visibility Wind Speed Wind Dir Waves Ship Positions

Bunun Fortune

Last reported at 2018-Jun-22 09:32 UTC. Time now 2018-Jun-25 02:09 UTC.
Position N 09°13' W 079°56'.

Length 180 m; draft 10.3 m.

Type: Cargo ship. MMSI: 477193300.

Date/timePositionNaut miles runAvg speedWind from/ knotsBaromVisibWave heightAir tempDewpointWater temp
2018-Jun-22 09:32N 09°13' W 079°56'1 3.9
2018-Jun-22 09:11N 09°14' W 079°55'1 5.6
2018-Jun-22 09:00N 09°15' W 079°55'1 2.1
2018-Jun-22 08:30N 09°16' W 079°55'0 0.6
2018-Jun-22 07:57N 09°17' W 079°55'0 0.5
2018-Jun-22 07:30N 09°17' W 079°55'1 2.8
2018-Jun-22 07:00N 09°18' W 079°55'3 5.5
2018-Jun-22 06:29N 09°21' W 079°55'3 6.9
2018-Jun-22 06:00N 09°24' W 079°55'0 0.8
2018-Jun-22 05:30N 09°25' W 079°56'0 0.0
2018-Jun-22 05:00N 09°25' W 079°56'0 0.1
2018-Jun-22 04:30N 09°25' W 079°56'0 0.1
2018-Jun-22 04:00N 09°25' W 079°56'0 0.0
2018-Jun-22 03:09N 09°25' W 079°56'0 0.1
2018-Jun-22 03:00N 09°25' W 079°56'0 0.0
2018-Jun-22 02:30N 09°25' W 079°56'0 0.0
2018-Jun-22 02:00N 09°25' W 079°56'0 0.0
2018-Jun-22 01:27N 09°25' W 079°56'0 0.0
2018-Jun-22 01:00N 09°25' W 079°56'0 0.0
2018-Jun-22 00:30N 09°25' W 079°56'0 0.0
2018-Jun-22 00:00N 09°25' W 079°56'0 0.0
2018-Jun-21 23:27N 09°25' W 079°56'0 0.0
2018-Jun-21 23:00N 09°25' W 079°56'0 0.0
2018-Jun-21 22:30N 09°25' W 079°56'0 0.0
2018-Jun-21 22:00N 09°25' W 079°56'0 0.0
2018-Jun-21 21:30N 09°25' W 079°56'0 0.0
2018-Jun-21 21:00N 09°25' W 079°56'0 0.0
2018-Jun-21 20:30N 09°25' W 079°56'0 0.0
2018-Jun-21 20:00N 09°25' W 079°56'0 0.0
2018-Jun-21 19:30N 09°25' W 079°56'0 0.0
2018-Jun-21 19:00N 09°25' W 079°56'0 0.0
2018-Jun-21 18:27N 09°25' W 079°56'0 0.0
2018-Jun-21 18:00N 09°25' W 079°56'0 0.0
2018-Jun-21 17:30N 09°25' W 079°56'0 0.0
2018-Jun-21 17:00N 09°25' W 079°56'0 0.0
2018-Jun-21 16:30N 09°25' W 079°56'0 0.0
2018-Jun-21 16:00N 09°25' W 079°56'0 0.4
2018-Jun-21 15:30N 09°25' W 079°55'3 5.4
2018-Jun-21 15:00N 09°27' W 079°55'612.1
2018-Jun-21 14:28N 09°34' W 079°52'  
2018-Jun-13 05:22N 30°04' W 090°54'0 0.0
2018-Jun-13 04:49N 30°04' W 090°54'0 0.0
2018-Jun-13 04:25N 30°04' W 090°54'0 0.0
2018-Jun-13 03:52N 30°04' W 090°54'0 0.0
2018-Jun-13 03:19N 30°04' W 090°54'0 0.0
2018-Jun-13 02:58N 30°04' W 090°54'  
Track history (hours):
 
Tides and Currents Weather Stations Pressure Air Temp Water Temp Dewpoint Dewpoint Depression Visibility Wind Speed Wind Dir Waves Ship Positions

Bunun Fortune

Last reported at 2018-Jun-22 09:32 UTC. Time now 2018-Jun-25 02:09 UTC.
Position N 09°13' W 079°56'.

Length 180 m; draft 10.3 m.

Type: Cargo ship. MMSI: 477193300.

Date/timePositionNaut miles runAvg speedWind from/ knotsBaromVisibWave heightAir tempDewpointWater temp
2018-Jun-22 09:32N 09°13' W 079°56'1 3.9
2018-Jun-22 09:11N 09°14' W 079°55'1 5.6
2018-Jun-22 09:00N 09°15' W 079°55'1 2.1
2018-Jun-22 08:30N 09°16' W 079°55'0 0.6
2018-Jun-22 07:57N 09°17' W 079°55'0 0.5
2018-Jun-22 07:30N 09°17' W 079°55'1 2.8
2018-Jun-22 07:00N 09°18' W 079°55'3 5.5
2018-Jun-22 06:29N 09°21' W 079°55'3 6.9
2018-Jun-22 06:00N 09°24' W 079°55'0 0.8
2018-Jun-22 05:30N 09°25' W 079°56'0 0.0
2018-Jun-22 05:00N 09°25' W 079°56'0 0.1
2018-Jun-22 04:30N 09°25' W 079°56'0 0.1
2018-Jun-22 04:00N 09°25' W 079°56'0 0.0
2018-Jun-22 03:09N 09°25' W 079°56'0 0.1
2018-Jun-22 03:00N 09°25' W 079°56'0 0.0
2018-Jun-22 02:30N 09°25' W 079°56'0 0.0
2018-Jun-22 02:00N 09°25' W 079°56'0 0.0
2018-Jun-22 01:27N 09°25' W 079°56'0 0.0
2018-Jun-22 01:00N 09°25' W 079°56'0 0.0
2018-Jun-22 00:30N 09°25' W 079°56'0 0.0
2018-Jun-22 00:00N 09°25' W 079°56'0 0.0
2018-Jun-21 23:27N 09°25' W 079°56'0 0.0
2018-Jun-21 23:00N 09°25' W 079°56'0 0.0
2018-Jun-21 22:30N 09°25' W 079°56'0 0.0
2018-Jun-21 22:00N 09°25' W 079°56'0 0.0
2018-Jun-21 21:30N 09°25' W 079°56'0 0.0
2018-Jun-21 21:00N 09°25' W 079°56'0 0.0
2018-Jun-21 20:30N 09°25' W 079°56'0 0.0
2018-Jun-21 20:00N 09°25' W 079°56'0 0.0
2018-Jun-21 19:30N 09°25' W 079°56'0 0.0
2018-Jun-21 19:00N 09°25' W 079°56'0 0.0
2018-Jun-21 18:27N 09°25' W 079°56'0 0.0
2018-Jun-21 18:00N 09°25' W 079°56'0 0.0
2018-Jun-21 17:30N 09°25' W 079°56'0 0.0
2018-Jun-21 17:00N 09°25' W 079°56'0 0.0
2018-Jun-21 16:30N 09°25' W 079°56'0 0.0
2018-Jun-21 16:00N 09°25' W 079°56'0 0.4
2018-Jun-21 15:30N 09°25' W 079°55'3 5.4
2018-Jun-21 15:00N 09°27' W 079°55'612.1
2018-Jun-21 14:28N 09°34' W 079°52'  
2018-Jun-13 05:22N 30°04' W 090°54'0 0.0
2018-Jun-13 04:49N 30°04' W 090°54'0 0.0
2018-Jun-13 04:25N 30°04' W 090°54'0 0.0
2018-Jun-13 03:52N 30°04' W 090°54'0 0.0
2018-Jun-13 03:19N 30°04' W 090°54'0 0.0
2018-Jun-13 02:58N 30°04' W 090°54'  

Dump ship's entire track history